Time;durP1;ratioP1;P1;durP2;ratioP2;P2;SDS_P1;SDS_P2;PMS_P1;PMS_P2;Temp;Humidity;BMP_temperature;BMP_pressure;BME280_temperature;BME280_humidity;BME280_pressure;Samples;Min_cycle;Max_cycle;Signal;HPM_P1;HPM_P2
2023/04/01 00:00:48;;;;;;;13.52;6.47;;;15.80;76.00;;;;;;5050966;28;20041;-68
2023/04/01 00:03:14;;;;;;;9.88;5.30;;;15.80;76.20;;;;;;5051964;28;20425;-68
2023/04/01 00:05:39;;;;;;;11.20;5.82;;;15.80;76.10;;;;;;5050610;28;20029;-68
2023/04/01 00:08:05;;;;;;;14.65;5.57;;;15.80;76.20;;;;;;5038073;28;20022;-68
2023/04/01 00:10:31;;;;;;;13.18;5.80;;;15.80;76.10;;;;;;5031956;28;20066;-68
2023/04/01 00:12:56;;;;;;;11.88;5.28;;;15.80;76.20;;;;;;5047386;28;20026;-68
2023/04/01 00:15:22;;;;;;;10.05;5.35;;;15.80;76.20;;;;;;5031852;28;20029;-68
2023/04/01 00:17:48;;;;;;;11.18;5.18;;;15.80;76.20;;;;;;5063946;28;20021;-68
2023/04/01 00:20:14;;;;;;;11.52;4.95;;;15.80;76.20;;;;;;5031608;28;20117;-68
2023/04/01 00:22:40;;;;;;;8.95;5.38;;;15.80;76.10;;;;;;5063858;28;20100;-68
2023/04/01 00:25:06;;;;;;;11.32;5.13;;;15.80;76.20;;;;;;5030756;28;20057;-68
2023/04/01 00:27:32;;;;;;;10.00;4.75;;;15.80;76.00;;;;;;5031684;28;20064;-68
2023/04/01 00:29:58;;;;;;;10.73;4.72;;;15.80;76.10;;;;;;5063821;28;20097;-68
2023/04/01 00:32:23;;;;;;;9.43;5.18;;;15.80;76.10;;;;;;5031568;28;20036;-68
2023/04/01 00:34:52;;;;;;;9.70;4.38;;;15.70;76.10;;;;;;5046984;28;20040;-68
2023/04/01 00:37:19;;;;;;;9.88;4.53;;;15.80;76.10;;;;;;5047565;28;20022;-68
2023/04/01 00:39:44;;;;;;;8.43;4.32;;;15.70;76.10;;;;;;5067065;28;20032;-68
2023/04/01 00:42:10;;;;;;;8.85;4.43;;;15.80;76.10;;;;;;5035304;28;20101;-68
2023/04/01 00:44:37;;;;;;;9.40;4.47;;;15.80;76.20;;;;;;5050571;28;20017;-68
2023/04/01 00:47:02;;;;;;;9.93;5.00;;;15.80;76.10;;;;;;5067237;28;20524;-68
2023/04/01 00:49:33;;;;;;;8.57;4.30;;;15.80;76.20;;;;;;5035080;28;20049;-68
2023/04/01 00:52:00;;;;;;;11.20;5.68;;;15.80;76.10;;;;;;5067044;28;20042;-68
2023/04/01 00:54:26;;;;;;;11.02;4.32;;;15.80;76.20;;;;;;5066838;28;20075;-68
2023/04/01 00:56:55;;;;;;;8.70;4.07;;;15.80;76.20;;;;;;5050481;28;20025;-68
2023/04/01 00:59:50;;;;;;;7.40;3.88;;;15.80;76.20;;;;;;5075950;28;20043;-68
2023/04/01 01:02:17;;;;;;;11.30;4.68;;;15.80;76.30;;;;;;5067793;28;20032;-68
2023/04/01 01:04:42;;;;;;;9.23;4.35;;;15.80;76.30;;;;;;5054479;28;20021;-68
2023/04/01 01:07:33;;;;;;;10.27;4.20;;;15.80;76.30;;;;;;5054639;28;20024;-68
2023/04/01 01:10:12;;;;;;;10.57;4.20;;;15.70;76.30;;;;;;5053453;28;20463;-68
2023/04/01 01:12:41;;;;;;;6.45;3.70;;;15.70;76.40;;;;;;5053610;28;20032;-69
2023/04/01 01:15:22;;;;;;;13.10;3.92;;;15.70;76.40;;;;;;5053461;28;20025;-68
2023/04/01 01:17:56;;;;;;;7.85;3.95;;;15.70;76.50;;;;;;5054497;28;20032;-68
2023/04/01 01:20:31;;;;;;;10.15;4.32;;;15.70;76.50;;;;;;5053186;28;20386;-68
2023/04/01 01:23:34;;;;;;;11.65;4.18;;;15.70;76.50;;;;;;5054560;28;20021;-68
2023/04/01 01:26:30;;;;;;;7.40;3.50;;;15.70;76.50;;;;;;5054566;28;20033;-68
2023/04/01 01:29:26;;;;;;;9.50;3.85;;;15.70;76.50;;;;;;5054446;28;20104;-68
2023/04/01 01:32:13;;;;;;;10.20;4.10;;;15.70;76.50;;;;;;5053122;28;20025;-68
2023/04/01 01:35:07;;;;;;;9.30;3.55;;;15.70;76.50;;;;;;5036542;28;20025;-68
2023/04/01 01:37:32;;;;;;;5.85;3.03;;;15.70;76.60;;;;;;5034365;28;20033;-68
2023/04/01 01:40:03;;;;;;;7.05;3.13;;;15.70;76.50;;;;;;5052610;28;20034;-68
2023/04/01 01:42:30;;;;;;;9.60;3.45;;;15.70;76.60;;;;;;5033095;28;20063;-68
2023/04/01 01:44:55;;;;;;;7.07;3.97;;;15.70;76.50;;;;;;5032882;28;20018;-68
2023/04/01 01:47:21;;;;;;;12.70;3.95;;;15.70;76.60;;;;;;5016320;28;20550;-68
2023/04/01 01:49:47;;;;;;;8.38;3.60;;;15.70;76.60;;;;;;5033190;28;20523;-68
2023/04/01 01:52:12;;;;;;;7.30;3.53;;;15.70;76.50;;;;;;5052640;28;20044;-68
2023/04/01 01:54:49;;;;;;;7.57;3.60;;;15.70;76.50;;;;;;5052716;28;20059;-68
2023/04/01 01:57:14;;;;;;;8.70;3.08;;;15.70;76.50;;;;;;5052570;28;20025;-68
2023/04/01 01:59:40;;;;;;;7.75;3.33;;;15.70;76.50;;;;;;5052447;28;20033;-68
2023/04/01 02:02:07;;;;;;;10.32;3.40;;;15.80;76.60;;;;;;5069032;28;20037;-68
2023/04/01 02:04:39;;;;;;;8.32;3.20;;;15.70;76.60;;;;;;5068740;28;20017;-68
2023/04/01 02:07:07;;;;;;;8.50;3.13;;;15.70;76.60;;;;;;5063481;28;20017;-68
2023/04/01 02:09:34;;;;;;;11.60;3.60;;;15.70;76.60;;;;;;5048779;28;20068;-68
2023/04/01 02:12:07;;;;;;;7.88;3.00;;;15.70;76.60;;;;;;5065369;28;20521;-68
2023/04/01 02:14:46;;;;;;;8.02;3.00;;;15.70;76.60;;;;;;5065500;28;20080;-68
2023/04/01 02:17:16;;;;;;;6.68;2.75;;;15.70;76.60;;;;;;5063821;28;20026;-68
2023/04/01 02:19:51;;;;;;;6.53;3.03;;;15.70;76.60;;;;;;5048156;28;20025;-68
2023/04/01 02:22:22;;;;;;;5.97;2.80;;;15.70;76.60;;;;;;5033390;28;20516;-68
2023/04/01 02:24:48;;;;;;;7.18;2.90;;;15.70;76.60;;;;;;5048694;28;20024;-68
2023/04/01 02:27:14;;;;;;;5.82;2.75;;;15.70;76.60;;;;;;5048585;28;20112;-68
2023/04/01 02:29:40;;;;;;;7.82;3.03;;;15.80;76.60;;;;;;5065146;28;20101;-68
2023/04/01 02:32:05;;;;;;;4.93;2.45;;;15.70;76.60;;;;;;5065099;28;20029;-68
2023/04/01 02:34:31;;;;;;;6.53;2.95;;;15.70;76.60;;;;;;5031718;28;20030;-68
2023/04/01 02:36:57;;;;;;;6.38;2.45;;;15.70;76.60;;;;;;5048768;28;20029;-68
2023/04/01 02:39:22;;;;;;;5.10;2.63;;;15.70;76.70;;;;;;5048514;28;20017;-68
2023/04/01 02:41:48;;;;;;;6.78;2.67;;;15.70;76.70;;;;;;5032843;28;20029;-68
2023/04/01 02:44:15;;;;;;;7.15;2.42;;;15.70;76.70;;;;;;5033009;28;20022;-68
2023/04/01 02:46:41;;;;;;;7.40;2.78;;;15.70;76.70;;;;;;5047983;28;20025;-69
2023/04/01 02:49:06;;;;;;;6.85;2.80;;;15.70;76.70;;;;;;5064917;28;20018;-68
2023/04/01 02:51:32;;;;;;;7.97;2.40;;;15.70;76.70;;;;;;5048303;28;20120;-69
2023/04/01 02:53:58;;;;;;;6.15;2.72;;;15.70;76.70;;;;;;5064285;28;20038;-68
2023/04/01 02:56:25;;;;;;;4.57;2.05;;;15.70;76.70;;;;;;5064846;28;20409;-68
2023/04/01 02:58:51;;;;;;;5.68;2.50;;;15.70;76.70;;;;;;5070343;28;20025;-68
2023/04/01 03:01:16;;;;;;;7.40;2.90;;;15.70;76.60;;;;;;5052082;28;20039;-68
2023/04/01 03:03:42;;;;;;;5.97;2.90;;;15.70;76.60;;;;;;5052504;28;20063;-68
2023/04/01 03:06:12;;;;;;;5.40;2.33;;;15.70;76.60;;;;;;5052669;28;20103;-68
2023/04/01 03:08:38;;;;;;;6.82;2.22;;;15.70;76.70;;;;;;5084361;28;20023;-68
2023/04/01 03:11:03;;;;;;;5.68;2.55;;;15.70;76.60;;;;;;5051482;28;20024;-69
2023/04/01 03:13:29;;;;;;;7.82;2.67;;;15.70;76.70;;;;;;5051370;28;20025;-69
2023/04/01 03:15:55;;;;;;;5.05;2.38;;;15.70;76.70;;;;;;5051121;28;20032;-68
2023/04/01 03:18:20;;;;;;;5.65;2.28;;;15.70;76.80;;;;;;5052341;28;20448;-68
2023/04/01 03:20:46;;;;;;;8.75;2.38;;;15.70;76.80;;;;;;5051259;28;20025;-68
2023/04/01 03:23:12;;;;;;;5.25;2.30;;;15.70;76.80;;;;;;5052342;28;20485;-69
2023/04/01 03:25:37;;;;;;;6.93;2.22;;;15.70;76.80;;;;;;5051233;28;20024;-69
2023/04/01 03:28:03;;;;;;;6.88;2.30;;;15.60;76.80;;;;;;5051183;28;20040;-69
2023/04/01 03:30:31;;;;;;;6.88;2.45;;;15.70;76.90;;;;;;5051883;28;20396;-68
2023/04/01 03:32:57;;;;;;;6.93;2.80;;;15.70;76.80;;;;;;5051196;28;20025;-68
2023/04/01 03:35:22;;;;;;;7.20;2.45;;;15.70;76.80;;;;;;5050975;28;20021;-69
2023/04/01 03:37:50;;;;;;;4.80;2.35;;;15.60;76.80;;;;;;5052280;28;20071;-68
2023/04/01 03:40:15;;;;;;;4.68;2.13;;;15.70;76.90;;;;;;5051128;28;20021;-68
2023/04/01 03:42:41;;;;;;;8.32;2.78;;;15.70;76.80;;;;;;5051751;28;20083;-68
2023/04/01 03:45:07;;;;;;;5.65;2.13;;;15.70;76.80;;;;;;5051899;28;20493;-69
2023/04/01 03:47:32;;;;;;;8.68;2.33;;;15.70;76.90;;;;;;5050918;28;20485;-68
2023/04/01 03:49:58;;;;;;;7.63;2.60;;;15.70;76.80;;;;;;5050848;28;20029;-68
2023/04/01 03:52:24;;;;;;;6.30;2.63;;;15.70;76.80;;;;;;5050830;28;20444;-68
2023/04/01 03:54:50;;;;;;;5.38;2.25;;;15.70;76.80;;;;;;5051944;28;20021;-68
2023/04/01 03:57:15;;;;;;;4.53;2.30;;;15.60;76.70;;;;;;5052460;28;20100;-68
2023/04/01 03:59:41;;;;;;;5.13;1.90;;;15.60;76.80;;;;;;5050513;28;20104;-69
2023/04/01 04:02:07;;;;;;;8.30;2.53;;;15.70;76.80;;;;;;5050887;28;20040;-68
2023/04/01 04:04:32;;;;;;;7.72;2.42;;;15.60;76.80;;;;;;5051742;28;20036;-69
2023/04/01 04:06:58;;;;;;;5.97;2.08;;;15.60;76.90;;;;;;5047594;28;20029;-68
2023/04/01 04:09:24;;;;;;;7.45;2.40;;;15.60;76.90;;;;;;5047197;28;20025;-68
2023/04/01 04:11:49;;;;;;;4.60;2.28;;;15.60;76.90;;;;;;5064028;28;20036;-69
2023/04/01 04:14:15;;;;;;;7.07;2.40;;;15.60;76.90;;;;;;5051067;28;20489;-69
2023/04/01 04:16:41;;;;;;;7.93;2.42;;;15.60;76.90;;;;;;5067736;28;20437;-68
2023/04/01 04:19:06;;;;;;;5.10;1.92;;;15.60;76.90;;;;;;5051275;28;20136;-69
2023/04/01 04:21:32;;;;;;;4.70;2.42;;;15.60;76.90;;;;;;5067418;28;20025;-68
2023/04/01 04:24:01;;;;;;;6.03;2.00;;;15.60;76.90;;;;;;5067811;28;20076;-68
2023/04/01 04:26:27;;;;;;;5.72;1.83;;;15.60;76.90;;;;;;5067572;28;20512;-69
2023/04/01 04:28:53;;;;;;;4.82;2.10;;;15.60;76.90;;;;;;5067594;28;20029;-69
2023/04/01 04:31:20;;;;;;;5.40;2.10;;;15.60;77.00;;;;;;5067436;28;20075;-68
2023/04/01 04:33:46;;;;;;;5.30;2.10;;;15.60;77.00;;;;;;5067490;28;20028;-68
2023/04/01 04:36:11;;;;;;;3.83;1.65;;;15.60;77.00;;;;;;5035625;28;20026;-68
2023/04/01 04:38:37;;;;;;;5.60;2.38;;;15.60;77.00;;;;;;5067501;28;20022;-68
2023/04/01 04:41:03;;;;;;;4.07;1.70;;;15.60;77.10;;;;;;5067011;28;20022;-69
2023/04/01 04:43:28;;;;;;;6.53;2.17;;;15.60;77.10;;;;;;5035404;28;20022;-68
2023/04/01 04:45:54;;;;;;;4.20;1.83;;;15.60;77.10;;;;;;5067095;28;20071;-68
2023/04/01 04:48:20;;;;;;;7.45;2.17;;;15.60;77.10;;;;;;5035204;28;20402;-68
2023/04/01 04:50:49;;;;;;;4.78;1.67;;;15.60;77.00;;;;;;5067226;28;20014;-68
2023/04/01 04:53:16;;;;;;;4.35;1.70;;;15.60;77.20;;;;;;5050360;28;20080;-68
2023/04/01 04:55:46;;;;;;;3.90;1.77;;;15.60;78.10;;;;;;5034877;28;20034;-68
2023/04/01 04:58:12;;;;;;;4.32;1.88;;;15.60;77.20;;;;;;5050852;28;20026;-68
2023/04/01 05:00:37;;;;;;;5.38;1.92;;;15.60;77.10;;;;;;5053726;28;20069;-68
2023/04/01 05:03:03;;;;;;;6.28;2.05;;;15.60;77.20;;;;;;5054830;28;20178;-68
2023/04/01 05:05:29;;;;;;;6.95;2.58;;;15.60;77.10;;;;;;5053781;28;20374;-68
2023/04/01 05:07:54;;;;;;;4.47;1.88;;;15.60;77.20;;;;;;5041434;28;20112;-69
2023/04/01 05:10:20;;;;;;;4.10;1.75;;;15.60;77.10;;;;;;5066752;28;20021;-68
2023/04/01 05:12:46;;;;;;;4.40;1.52;;;15.60;77.20;;;;;;5050126;28;20021;-68
2023/04/01 05:15:12;;;;;;;6.47;1.85;;;15.60;77.10;;;;;;5034611;28;20485;-69
2023/04/01 05:17:37;;;;;;;8.57;2.22;;;15.60;77.00;;;;;;5050019;28;20064;-68
2023/04/01 05:20:03;;;;;;;4.43;1.70;;;15.60;77.00;;;;;;5034683;28;20033;-68
2023/04/01 05:22:29;;;;;;;4.60;1.65;;;15.60;77.20;;;;;;5066649;28;20096;-69
2023/04/01 05:24:55;;;;;;;6.55;1.77;;;15.60;77.20;;;;;;5049276;28;20565;-68
2023/04/01 05:27:20;;;;;;;2.95;1.35;;;15.60;77.20;;;;;;5034594;28;20032;-69
2023/04/01 05:29:46;;;;;;;8.57;1.40;;;15.60;77.20;;;;;;5049669;28;20482;-68
2023/04/01 05:32:12;;;;;;;7.75;1.80;;;15.60;77.30;;;;;;5034585;28;20033;-68
2023/04/01 05:34:37;;;;;;;5.45;1.92;;;15.60;77.30;;;;;;5034248;28;20025;-68
2023/04/01 05:37:03;;;;;;;5.07;1.60;;;15.70;77.40;;;;;;5066360;28;20436;-68
2023/04/01 05:39:29;;;;;;;6.32;2.22;;;15.60;77.30;;;;;;5034096;28;20051;-68
2023/04/01 05:41:54;;;;;;;4.03;1.65;;;15.60;77.30;;;;;;5032701;28;20083;-68
2023/04/01 05:44:20;;;;;;;5.53;1.95;;;15.60;77.40;;;;;;5066221;28;20096;-68
2023/04/01 05:46:46;;;;;;;4.60;2.00;;;15.60;77.50;;;;;;5034000;28;20025;-68
2023/04/01 05:49:11;;;;;;;1.98;1.45;;;15.60;77.50;;;;;;5034091;28;20406;-68
2023/04/01 05:51:37;;;;;;;6.18;1.70;;;15.60;77.40;;;;;;5033855;28;20029;-68
2023/04/01 05:54:04;;;;;;;3.13;1.70;;;15.60;77.40;;;;;;5033694;28;20033;-69
2023/04/01 05:56:30;;;;;;;3.63;1.45;;;15.60;77.40;;;;;;5049242;28;20025;-68
2023/04/01 05:58:56;;;;;;;4.68;1.40;;;15.60;77.50;;;;;;5055737;28;20373;-68
2023/04/01 06:01:21;;;;;;;7.40;1.83;;;15.60;77.50;;;;;;5053662;28;20500;-68
2023/04/01 06:03:47;;;;;;;8.23;1.65;;;15.60;77.50;;;;;;5053620;28;20017;-68
2023/04/01 06:06:22;;;;;;;4.97;1.80;;;15.60;77.50;;;;;;5053768;28;20033;-69
2023/04/01 06:08:48;;;;;;;3.75;1.33;;;15.60;77.50;;;;;;5052060;28;20017;-69
2023/04/01 06:11:33;;;;;;;4.72;2.05;;;15.60;77.50;;;;;;5052452;28;20117;-69
2023/04/01 06:14:07;;;;;;;6.50;1.50;;;15.60;77.50;;;;;;5052301;28;20049;-69
2023/04/01 06:16:59;;;;;;;6.05;1.70;;;15.60;77.60;;;;;;5052166;28;20021;-69
2023/04/01 06:19:46;;;;;;;6.78;1.80;;;15.60;77.60;;;;;;5052268;28;20051;-69
2023/04/01 06:22:37;;;;;;;3.95;1.40;;;15.60;77.50;;;;;;5052189;28;20025;-69
2023/04/01 06:25:15;;;;;;;5.07;1.70;;;15.60;77.60;;;;;;5052253;28;20017;-69
2023/04/01 06:27:59;;;;;;;5.72;1.73;;;15.60;77.50;;;;;;5053776;28;20032;-68
2023/04/01 06:30:30;;;;;;;7.50;1.83;;;15.60;77.60;;;;;;5053230;28;20032;-68
2023/04/01 06:33:28;;;;;;;3.17;1.52;;;15.60;77.70;;;;;;5052727;28;20099;-68
2023/04/01 06:36:18;;;;;;;5.50;1.50;;;15.60;77.70;;;;;;5044859;28;20374;-68
2023/04/01 06:38:53;;;;;;;5.80;1.38;;;15.60;77.70;;;;;;5051696;28;20033;-69
2023/04/01 06:41:36;;;;;;;4.53;1.85;;;15.60;77.70;;;;;;5052951;28;20025;-68
2023/04/01 06:44:18;;;;;;;3.58;1.30;;;15.60;77.70;;;;;;5052940;28;20021;-68
2023/04/01 06:47:20;;;;;;;2.45;1.38;;;15.60;77.70;;;;;;5051559;28;20485;-68
2023/04/01 06:50:08;;;;;;;3.50;1.57;;;15.60;77.70;;;;;;5051905;28;20021;-69
2023/04/01 06:52:36;;;;;;;5.10;1.33;;;15.60;77.70;;;;;;5052415;28;20527;-68
2023/04/01 06:55:17;;;;;;;6.40;2.00;;;15.60;77.80;;;;;;5052743;28;20025;-68
2023/04/01 06:57:47;;;;;;;4.38;1.42;;;15.60;77.90;;;;;;5051686;28;20033;-68
2023/04/01 07:00:30;;;;;;;5.30;1.38;;;15.60;77.90;;;;;;5051456;28;20017;-68
2023/04/01 07:03:41;;;;;;;5.57;1.60;;;15.60;77.80;;;;;;5034739;28;20131;-69
2023/04/01 07:06:11;;;;;;;4.57;1.17;;;15.60;77.90;;;;;;5048908;28;20147;-68
2023/04/01 07:08:39;;;;;;;5.63;1.55;;;15.60;77.80;;;;;;5033424;28;20097;-68
2023/04/01 07:11:11;;;;;;;5.35;1.55;;;15.60;77.90;;;;;;5047892;28;20515;-69
2023/04/01 07:13:52;;;;;;;5.32;1.55;;;15.60;77.90;;;;;;5047148;28;20032;-68
2023/04/01 07:16:29;;;;;;;4.10;1.52;;;15.60;77.90;;;;;;5046946;28;20017;-68
2023/04/01 07:19:31;;;;;;;4.18;1.40;;;15.60;77.90;;;;;;5064601;28;20026;-68
2023/04/01 07:22:03;;;;;;;2.58;1.10;;;15.60;77.90;;;;;;5064202;28;20071;-68
2023/04/01 07:24:37;;;;;;;4.28;1.75;;;15.60;78.00;;;;;;5063461;28;20014;-68
2023/04/01 07:27:03;;;;;;;4.53;1.48;;;15.60;77.90;;;;;;5032344;28;20485;-69
2023/04/01 07:29:29;;;;;;;3.38;1.52;;;15.60;77.90;;;;;;5064540;28;20033;-68
2023/04/01 07:32:00;;;;;;;3.03;1.33;;;15.60;77.90;;;;;;5047705;28;20037;-68
2023/04/01 07:34:35;;;;;;;4.85;1.27;;;15.60;77.90;;;;;;5032117;28;20485;-68
2023/04/01 07:37:10;;;;;;;3.05;1.20;;;15.60;78.90;;;;;;5061885;28;20104;-68
2023/04/01 07:39:45;;;;;;;3.28;1.55;;;15.60;77.80;;;;;;5047445;28;20032;-69
2023/04/01 07:42:25;;;;;;;2.95;1.17;;;15.60;77.80;;;;;;5063396;28;20030;-69
2023/04/01 07:45:24;;;;;;;6.43;1.45;;;15.60;77.90;;;;;;5063358;28;20037;-68
2023/04/01 07:48:18;;;;;;;2.90;1.10;;;15.60;77.90;;;;;;5035603;28;20021;-68
2023/04/01 07:50:50;;;;;;;3.55;1.23;;;15.60;77.90;;;;;;5050555;28;20026;-68
2023/04/01 07:53:44;;;;;;;3.65;1.33;;;15.60;77.80;;;;;;5068114;28;20128;-69
2023/04/01 07:56:18;;;;;;;11.73;2.55;;;15.60;77.90;;;;;;5036074;28;20032;-68
2023/04/01 07:58:55;;;;;;;2.63;1.05;;;15.60;77.80;;;;;;5072229;28;20021;-68
2023/04/01 08:01:30;;;;;;;3.78;1.25;;;15.60;77.90;;;;;;5056059;28;20556;-68
2023/04/01 08:03:56;;;;;;;4.65;1.23;;;15.60;77.80;;;;;;5070768;28;20021;-69
2023/04/01 08:06:29;;;;;;;5.97;1.30;;;15.60;77.80;;;;;;5055992;28;20535;-68
2023/04/01 08:09:20;;;;;;;3.70;1.30;;;15.60;77.80;;;;;;5051135;28;20021;-69
2023/04/01 08:12:03;;;;;;;2.47;1.35;;;15.60;77.70;;;;;;5035843;28;20029;-69
2023/04/01 08:14:32;;;;;;;2.75;1.02;;;15.60;77.70;;;;;;5035882;28;20029;-68
2023/04/01 08:17:01;;;;;;;2.75;1.17;;;15.60;77.70;;;;;;5035752;28;20084;-69
2023/04/01 08:20:08;;;;;;;5.15;1.17;;;15.50;77.60;;;;;;5035628;28;20024;-69
2023/04/01 08:22:56;;;;;;;3.65;0.98;;;15.60;77.60;;;;;;5028513;28;20038;-69
2023/04/01 08:25:24;;;;;;;1.48;1.08;;;15.60;77.70;;;;;;5053593;28;20029;-68
2023/04/01 08:28:11;;;;;;;2.65;1.00;;;15.60;77.60;;;;;;5051204;28;20063;-68
2023/04/01 08:30:48;;;;;;;4.15;1.35;;;15.60;77.60;;;;;;5035561;28;20021;-69
2023/04/01 08:33:19;;;;;;;2.83;1.00;;;15.50;77.50;;;;;;5051184;28;20505;-68
2023/04/01 08:36:26;;;;;;;4.43;1.27;;;15.50;77.50;;;;;;5034245;28;20113;-68
2023/04/01 08:38:53;;;;;;;4.13;1.30;;;15.50;77.50;;;;;;5033362;28;20036;-68
2023/04/01 08:41:48;;;;;;;4.30;1.17;;;15.50;77.50;;;;;;5016506;28;20391;-68
2023/04/01 08:44:37;;;;;;;3.22;1.38;;;15.60;77.50;;;;;;5027962;28;20037;-69
2023/04/01 08:47:25;;;;;;;2.60;0.90;;;15.60;77.60;;;;;;5032868;28;20030;-69
2023/04/01 08:50:06;;;;;;;4.03;1.30;;;15.50;77.50;;;;;;5033238;28;20026;-68
2023/04/01 08:52:38;;;;;;;3.50;0.95;;;15.50;77.50;;;;;;5016353;28;20085;-68
2023/04/01 08:55:25;;;;;;;2.75;1.17;;;15.50;77.50;;;;;;5032940;28;20034;-68
2023/04/01 08:58:12;;;;;;;3.15;0.88;;;15.50;77.50;;;;;;5032298;28;20026;-69
2023/04/01 09:00:50;;;;;;;3.45;1.30;;;15.50;77.50;;;;;;5032891;28;20048;-69
2023/04/01 09:03:22;;;;;;;3.50;0.98;;;15.50;77.60;;;;;;5015939;28;20060;-68
2023/04/01 09:06:02;;;;;;;5.13;1.48;;;15.50;77.60;;;;;;5032793;28;20047;-68
2023/04/01 09:08:42;;;;;;;4.43;1.40;;;15.50;77.60;;;;;;5049283;28;20053;-68
2023/04/01 09:11:08;;;;;;;3.85;1.17;;;15.50;77.60;;;;;;5052526;28;20025;-68
2023/04/01 09:14:16;;;;;;;2.60;1.20;;;15.50;77.60;;;;;;5050038;28;20030;-68
2023/04/01 09:17:07;;;;;;;3.58;1.35;;;15.50;77.60;;;;;;5032223;28;20037;-68
2023/04/01 09:19:56;;;;;;;4.05;1.35;;;15.50;77.60;;;;;;4993113;28;20034;-68
2023/04/01 09:22:31;;;;;;;6.35;1.50;;;15.50;77.60;;;;;;4976725;28;20073;-68
2023/04/01 09:25:26;;;;;;;4.35;1.50;;;15.50;77.60;;;;;;4993041;28;20066;-68
2023/04/01 09:28:21;;;;;;;3.70;1.15;;;15.50;77.60;;;;;;4980444;28;20042;-69
2023/04/01 09:31:08;;;;;;;3.55;1.13;;;15.50;77.70;;;;;;4980466;28;20034;-68
2023/04/01 09:34:10;;;;;;;6.80;1.75;;;15.50;77.60;;;;;;4992913;28;20046;-68
2023/04/01 09:36:48;;;;;;;3.28;1.00;;;15.50;77.70;;;;;;4992894;28;20034;-69
2023/04/01 09:39:38;;;;;;;3.40;1.10;;;15.50;77.70;;;;;;4992960;28;20499;-68
2023/04/01 09:42:12;;;;;;;7.80;1.67;;;15.50;77.60;;;;;;4992563;28;20030;-68
2023/04/01 09:44:56;;;;;;;4.93;1.00;;;15.50;77.60;;;;;;4992655;28;20125;-68
2023/04/01 09:47:27;;;;;;;3.45;1.08;;;15.50;77.60;;;;;;4986489;28;20038;-68
2023/04/01 09:50:06;;;;;;;5.72;1.48;;;15.50;77.50;;;;;;4992773;28;20538;-68
2023/04/01 09:52:52;;;;;;;3.20;1.15;;;15.50;77.50;;;;;;5007745;28;20074;-68
2023/04/01 09:55:39;;;;;;;4.55;1.20;;;15.50;77.60;;;;;;4992547;28;20079;-68
2023/04/01 09:58:08;;;;;;;4.72;1.20;;;15.50;77.50;;;;;;5033916;28;20029;-69
2023/04/01 10:01:01;;;;;;;4.15;1.23;;;15.50;77.60;;;;;;5033591;28;20037;-68
2023/04/01 10:03:32;;;;;;;3.85;1.13;;;15.50;77.70;;;;;;5033897;28;20114;-68
2023/04/01 10:06:18;;;;;;;3.25;0.95;;;15.50;77.70;;;;;;5033948;28;20029;-68
2023/04/01 10:09:02;;;;;;;2.55;1.05;;;15.50;77.60;;;;;;5052154;28;20044;-69
2023/04/01 10:11:52;;;;;;;3.20;1.10;;;15.50;77.60;;;;;;5052680;28;20033;-69
2023/04/01 10:14:51;;;;;;;7.88;1.92;;;15.50;77.60;;;;;;5053566;28;20550;-68
2023/04/01 10:17:25;;;;;;;4.57;1.55;;;15.50;77.50;;;;;;5053439;28;20021;-68
2023/04/01 10:19:54;;;;;;;5.32;1.20;;;15.40;77.50;;;;;;5053500;28;20027;-68
2023/04/01 10:22:51;;;;;;;9.13;1.77;;;15.50;77.50;;;;;;5053258;28;20106;-67
2023/04/01 10:25:42;;;;;;;13.05;2.53;;;15.40;75.00;;;;;;5051635;28;20024;-68
2023/04/01 10:28:17;;;;;;;17.02;3.17;;;15.20;71.60;;;;;;5052105;28;20527;-68
2023/04/01 10:30:52;;;;;;;14.38;3.40;;;15.10;70.40;;;;;;5052044;28;20028;-67
2023/04/01 10:33:43;;;;;;;17.20;3.00;;;14.90;69.40;;;;;;5053081;28;20408;-67
2023/04/01 10:36:28;;;;;;;12.60;3.35;;;14.80;68.70;;;;;;5036151;28;20078;-67
2023/04/01 10:39:15;;;;;;;18.50;2.60;;;14.70;67.70;;;;;;5053278;28;20025;-67
2023/04/01 10:41:46;;;;;;;12.65;2.92;;;14.60;67.90;;;;;;5053273;28;20391;-68
2023/04/01 10:44:24;;;;;;;13.15;2.70;;;14.60;68.50;;;;;;5052808;28;20488;-67
2023/04/01 10:47:26;;;;;;;18.50;3.40;;;14.60;68.40;;;;;;5035144;28;20106;-67
2023/04/01 10:50:24;;;;;;;14.77;2.95;;;14.50;67.60;;;;;;5014109;28;20128;-69
2023/04/01 10:53:10;;;;;;;15.70;3.17;;;14.50;68.30;;;;;;5016835;28;20058;-68
2023/04/01 10:55:45;;;;;;;18.75;3.75;;;14.40;67.50;;;;;;5030919;28;20606;-68
2023/04/01 10:58:28;;;;;;;12.32;2.65;;;14.40;67.50;;;;;;5029266;28;20112;-75
2023/04/01 11:01:21;;;;;;;16.58;3.22;;;14.40;68.00;;;;;;5046876;28;20444;-74
2023/04/01 11:04:17;;;;;;;13.50;2.90;;;14.70;68.10;;;;;;5030340;28;20041;-74
2023/04/01 11:07:10;;;;;;;13.60;2.25;;;14.90;68.00;;;;;;5030537;28;20041;-74
2023/04/01 11:10:13;;;;;;;14.98;2.53;;;15.10;68.10;;;;;;5030531;28;20029;-74
2023/04/01 11:13:00;;;;;;;16.58;3.17;;;15.30;68.10;;;;;;5030296;28;20036;-73
2023/04/01 11:15:37;;;;;;;9.93;2.22;;;15.50;68.00;;;;;;5030344;28;20107;-74
2023/04/01 11:18:23;;;;;;;12.38;2.40;;;15.70;67.80;;;;;;5014740;28;20033;-73
2023/04/01 11:21:00;;;;;;;10.02;2.28;;;15.80;67.90;;;;;;5013661;28;20045;-74
2023/04/01 11:23:45;;;;;;;11.35;2.40;;;16.00;67.80;;;;;;5030279;28;20029;-73
2023/04/01 11:26:31;;;;;;;7.35;1.92;;;16.20;67.90;;;;;;5038155;28;20033;-74
2023/04/01 11:29:26;;;;;;;7.65;2.25;;;16.30;67.50;;;;;;5052151;28;20021;-74
2023/04/01 11:32:02;;;;;;;6.72;2.20;;;16.40;67.60;;;;;;5037634;28;20060;-75
2023/04/01 11:34:31;;;;;;;7.13;2.28;;;16.60;67.40;;;;;;5034329;28;20017;-75
2023/04/01 11:37:01;;;;;;;7.75;2.25;;;16.80;67.20;;;;;;5052342;28;20025;-75
2023/04/01 11:40:05;;;;;;;8.27;2.38;;;16.90;67.20;;;;;;5050923;28;20052;-75
2023/04/01 11:42:48;;;;;;;9.20;2.10;;;17.00;67.30;;;;;;5051712;28;20025;-75
2023/04/01 11:45:35;;;;;;;7.00;2.10;;;17.20;67.30;;;;;;5050676;28;20021;-75
2023/04/01 11:48:19;;;;;;;6.07;1.83;;;17.30;67.10;;;;;;5051107;28;20025;-72
2023/04/01 11:50:55;;;;;;;6.30;1.90;;;17.40;66.80;;;;;;5051997;28;20025;-73
2023/04/01 11:53:51;;;;;;;11.18;1.90;;;17.50;66.80;;;;;;5051810;28;20073;-74
2023/04/01 11:56:25;;;;;;;4.90;1.70;;;17.60;66.60;;;;;;5032957;28;20556;-74
2023/04/01 11:59:17;;;;;;;7.95;1.90;;;17.80;66.40;;;;;;5049948;28;20517;-72
2023/04/01 12:01:50;;;;;;;9.77;2.10;;;17.90;66.50;;;;;;5033905;28;20045;-72
2023/04/01 12:04:38;;;;;;;7.32;2.13;;;18.00;66.20;;;;;;5033136;28;20025;-72
2023/04/01 12:07:27;;;;;;;6.93;2.17;;;18.20;66.10;;;;;;5029590;28;20105;-73
2023/04/01 12:10:05;;;;;;;6.60;2.17;;;18.30;66.10;;;;;;4997915;28;20018;-73
2023/04/01 12:12:31;;;;;;;7.30;1.90;;;18.40;65.70;;;;;;5013432;28;20025;-73
2023/04/01 12:15:14;;;;;;;7.25;2.13;;;18.50;65.60;;;;;;5029827;28;20109;-74
2023/04/01 12:17:43;;;;;;;5.57;1.48;;;18.60;65.60;;;;;;5013454;28;20087;-74
2023/04/01 12:20:12;;;;;;;9.15;2.15;;;18.70;65.50;;;;;;5013318;28;20540;-73
2023/04/01 12:22:51;;;;;;;8.43;2.25;;;18.80;65.60;;;;;;5029787;28;20037;-74
2023/04/01 12:25:22;;;;;;;5.35;1.58;;;18.90;65.40;;;;;;4996668;28;20151;-73
2023/04/01 12:28:06;;;;;;;4.85;1.77;;;19.00;65.40;;;;;;5029717;28;20547;-74
2023/04/01 12:30:50;;;;;;;4.80;1.73;;;19.10;65.60;;;;;;5029374;28;20025;-73
2023/04/01 12:33:34;;;;;;;6.13;1.70;;;19.20;65.00;;;;;;5031141;28;20048;-73
2023/04/01 12:36:11;;;;;;;5.22;1.80;;;19.30;65.00;;;;;;5035465;28;20030;-73
2023/04/01 12:38:55;;;;;;;5.35;1.75;;;19.30;64.80;;;;;;5035215;28;20405;-73
2023/04/01 12:41:21;;;;;;;6.25;1.83;;;19.50;64.80;;;;;;5035172;28;20053;-73
2023/04/01 12:44:18;;;;;;;5.93;1.80;;;19.50;64.80;;;;;;5035514;28;20053;-73
2023/04/01 12:46:58;;;;;;;6.07;1.85;;;19.60;64.80;;;;;;5038999;28;20033;-73
2023/04/01 12:49:46;;;;;;;4.03;1.67;;;19.70;64.70;;;;;;5035010;28;20101;-73
2023/04/01 12:52:18;;;;;;;5.55;1.70;;;19.80;64.80;;;;;;5034065;28;20116;-73
2023/04/01 12:54:56;;;;;;;6.07;2.05;;;19.80;64.10;;;;;;5051442;28;20493;-73
2023/04/01 12:57:53;;;;;;;3.97;1.40;;;19.90;64.30;;;;;;5035102;28;20080;-73
2023/04/01 13:00:53;;;;;;;5.65;1.60;;;20.00;64.40;;;;;;5052750;28;20029;-73
2023/04/01 13:03:45;;;;;;;3.17;1.58;;;20.10;64.20;;;;;;5054354;28;20095;-76
2023/04/01 13:06:26;;;;;;;6.43;1.73;;;20.20;64.00;;;;;;5052745;28;20041;-76
2023/04/01 13:09:16;;;;;;;2.67;1.27;;;20.20;63.90;;;;;;5035692;28;20037;-76
2023/04/01 13:12:07;;;;;;;3.65;1.05;;;20.30;64.30;;;;;;5036592;28;20247;-76
2023/04/01 13:14:41;;;;;;;4.95;1.60;;;20.40;64.00;;;;;;5004619;28;20021;-76
2023/04/01 13:17:39;;;;;;;6.72;1.73;;;20.40;63.70;;;;;;5052424;28;20033;-76
2023/04/01 13:20:23;;;;;;;3.70;1.25;;;20.50;64.00;;;;;;5052579;28;20562;-75
2023/04/01 13:23:07;;;;;;;2.97;1.50;;;20.60;63.60;;;;;;5052470;28;20025;-74
2023/04/01 13:25:53;;;;;;;3.83;1.25;;;20.70;63.30;;;;;;5052263;28;20163;-75
2023/04/01 13:28:23;;;;;;;3.67;1.50;;;20.80;63.10;;;;;;5019189;28;20025;-75